Time;durP1;ratioP1;P1;durP2;ratioP2;P2;SDS_P1;SDS_P2;PMS_P1;PMS_P2;Temp;Humidity;BMP_temperature;BMP_pressure;BME280_temperature;BME280_humidity;BME280_pressure;Samples;Min_cycle;Max_cycle;Signal;HPM_P1;HPM_P2
2021/12/22 00:03:12;;;;;;;;;45.00;37.75;;;;;2.86;65.00;101647.88;5136249;27;45755;-80
2021/12/22 00:05:44;;;;;;;;;37.75;30.50;;;;;2.78;65.14;101627.31;5136273;27;45884;-80
2021/12/22 00:08:13;;;;;;;;;39.50;34.50;;;;;2.86;65.28;101640.09;5137362;27;46813;-78
2021/12/22 00:10:42;;;;;;;;;41.25;31.25;;;;;2.85;65.13;101638.38;5139287;27;46072;-79
2021/12/22 00:13:08;;;;;;;;;43.00;35.50;;;;;2.52;65.33;101596.88;5139951;27;45767;-79
2021/12/22 00:15:34;;;;;;;;;42.75;37.25;;;;;2.47;65.41;101588.38;5140987;27;45514;-79
2021/12/22 00:17:59;;;;;;;;;34.00;29.00;;;;;2.57;65.66;101598.50;5138100;27;45540;-81
2021/12/22 00:20:24;;;;;;;;;36.75;31.50;;;;;2.79;65.31;101635.94;5138103;27;46498;-81
2021/12/22 00:22:50;;;;;;;;;37.50;33.50;;;;;2.74;65.50;101623.13;5121436;27;45615;-79
2021/12/22 00:25:16;;;;;;;;;39.50;31.50;;;;;2.75;65.11;101629.13;5140562;27;45793;-79
2021/12/22 00:27:42;;;;;;;;;45.00;32.50;;;;;2.71;65.53;101628.34;5139430;27;46601;-80
2021/12/22 00:30:09;;;;;;;;;41.50;38.50;;;;;2.69;65.32;101627.53;5139790;27;45556;-79
2021/12/22 00:32:36;;;;;;;;;23.75;15.50;;;;;2.48;65.11;101591.81;5139565;27;45567;-80
2021/12/22 00:35:02;;;;;;;;;42.00;36.75;;;;;2.51;65.78;101597.75;5139813;27;45544;-78
2021/12/22 00:37:29;;;;;;;;;42.50;37.00;;;;;2.69;65.43;101624.09;5139346;27;45526;-79
2021/12/22 00:39:56;;;;;;;;;37.25;29.00;;;;;2.67;65.56;101618.94;5139442;27;45984;-79
2021/12/22 00:42:24;;;;;;;;;40.25;34.75;;;;;2.66;65.74;101624.16;5120608;27;45871;-80
2021/12/22 00:48:11;;;;;;;;;39.75;32.50;;;;;2.52;65.72;101620.16;5136999;27;45711;-79
2021/12/22 00:50:38;;;;;;;;;41.50;35.25;;;;;2.46;65.33;101617.69;5139216;27;45953;-80
2021/12/22 00:53:05;;;;;;;;;40.00;32.75;;;;;2.37;66.08;101598.94;5138830;27;45591;-79
2021/12/22 00:55:30;;;;;;;;;36.50;31.00;;;;;2.43;65.84;101609.97;5138950;27;45665;-80
2021/12/22 00:57:56;;;;;;;;;36.00;29.00;;;;;2.36;65.67;101598.09;5138940;27;45563;-79
2021/12/22 01:00:24;;;;;;;;;33.75;28.50;;;;;2.38;66.10;101603.19;5138876;27;46005;-80
2021/12/22 01:02:50;;;;;;;;;31.25;26.25;;;;;2.54;65.60;101622.69;5138768;27;45847;-79
2021/12/22 01:05:16;;;;;;;;;31.75;26.25;;;;;2.49;65.50;101621.94;5139206;27;45965;-79
2021/12/22 01:07:45;;;;;;;;;41.00;33.00;;;;;2.51;65.92;101623.63;5139038;27;46749;-80
2021/12/22 01:10:11;;;;;;;;;36.75;30.25;;;;;2.49;66.08;101625.38;5139026;27;46130;-79
2021/12/22 01:12:37;;;;;;;;;31.25;24.75;;;;;2.37;66.00;101609.28;5138990;27;45801;-80
2021/12/22 01:18:35;;;;;;;;;38.25;32.00;;;;;2.49;65.96;101632.28;5138951;27;46110;-79
2021/12/22 01:21:27;;;;;;;;;37.25;28.25;;;;;2.45;65.74;101623.75;5139693;27;46187;-79
2021/12/22 01:26:45;;;;;;;;;27.00;24.50;;;;;2.47;66.29;101631.47;5139437;27;45843;-78
2021/12/22 01:29:11;;;;;;;;;30.00;26.00;;;;;2.42;66.11;101620.38;5138610;27;47653;-79
2021/12/22 01:31:39;;;;;;;;;36.25;28.00;;;;;2.38;66.25;101610.97;5138069;27;46199;-79
2021/12/22 01:34:04;;;;;;;;;34.75;29.25;;;;;2.41;66.15;101606.59;5137775;27;45777;-79
2021/12/22 01:36:29;;;;;;;;;35.75;30.50;;;;;2.41;66.14;101606.59;5140882;27;45657;-79
2021/12/22 01:38:55;;;;;;;;;30.00;26.33;;;;;2.40;65.81;101599.72;5122382;27;47145;-78
2021/12/22 01:41:20;;;;;;;;;29.25;26.00;;;;;2.36;65.91;101600.66;5142245;27;46319;-78
2021/12/22 01:43:47;;;;;;;;;34.50;26.25;;;;;2.40;66.39;101607.47;5142520;27;45577;-80
2021/12/22 01:49:14;;;;;;;;;35.00;27.25;;;;;2.37;66.12;101610.13;5138025;27;45592;-78
2021/12/22 01:52:10;;;;;;;;;34.25;31.75;;;;;2.35;66.12;101600.69;5137708;27;46451;-79
2021/12/22 01:54:48;;;;;;;;;35.00;28.50;;;;;2.34;66.59;101597.25;5138217;27;45822;-80
2021/12/22 01:57:17;;;;;;;;;35.75;29.75;;;;;2.29;66.57;101587.91;5137827;27;45764;-80
2021/12/22 01:59:46;;;;;;;;;35.75;26.25;;;;;2.31;66.25;101596.47;5136851;27;46381;-78
2021/12/22 02:02:14;;;;;;;;;31.25;27.00;;;;;2.22;66.76;101588.91;5137498;27;45895;-79
2021/12/22 02:04:41;;;;;;;;;33.50;27.75;;;;;2.32;66.58;101600.78;5137503;27;45871;-79
2021/12/22 02:07:08;;;;;;;;;43.25;31.50;;;;;2.34;66.41;101604.16;5137955;27;45470;-79
2021/12/22 02:10:28;;;;;;;;;39.50;30.00;;;;;2.32;66.87;101601.59;5137677;27;45611;-79
2021/12/22 02:12:25;;;;;;;;;43.50;34.50;;;;;2.35;66.98;101593.78;5131169;27;46027;-79
2021/12/22 02:14:50;;;;;;;;;37.50;30.25;;;;;2.31;66.75;101587.00;5137654;27;45461;-79
2021/12/22 02:17:16;;;;;;;;;45.00;31.00;;;;;2.42;66.78;101597.09;5137954;27;45657;-79
2021/12/22 02:19:43;;;;;;;;;34.25;30.00;;;;;2.40;66.42;101591.09;5137264;27;46525;-78
2021/12/22 02:22:14;;;;;;;;;33.00;24.75;;;;;2.40;66.77;101586.78;5118874;27;47050;-79
2021/12/22 02:24:58;;;;;;;;;40.00;31.75;;;;;2.45;66.61;101594.44;5137082;27;45489;-78
2021/12/22 02:27:40;;;;;;;;;40.75;29.00;;;;;2.36;66.82;101576.56;5137409;27;45535;-79
2021/12/22 02:30:13;;;;;;;;;33.50;30.50;;;;;2.45;67.07;101607.38;5137330;27;46314;-78
2021/12/22 02:35:13;;;;;;;;;39.25;34.25;;;;;2.46;66.68;101599.59;5137238;27;45909;-79
2021/12/22 02:37:44;;;;;;;;;42.50;32.50;;;;;2.39;66.90;101587.66;5137289;27;45836;-80
2021/12/22 02:40:15;;;;;;;;;41.00;31.00;;;;;2.47;66.59;101593.53;5137072;27;46522;-80
2021/12/22 02:42:42;;;;;;;;;37.75;25.00;;;;;2.48;66.72;101591.81;5137056;27;46185;-80
2021/12/22 02:45:14;;;;;;;;;33.00;25.25;;;;;2.49;66.87;101588.31;5136103;27;45702;-80
2021/12/22 02:47:40;;;;;;;;;41.50;31.75;;;;;2.49;66.99;101596.91;5137011;27;45676;-81
2021/12/22 02:50:07;;;;;;;;;59.25;36.50;;;;;2.50;67.22;101596.03;5137376;27;45653;-79
2021/12/22 02:52:46;;;;;;;;;35.00;28.50;;;;;2.51;67.02;101592.56;5136822;27;47391;-80
2021/12/22 02:55:12;;;;;;;;;37.75;32.25;;;;;2.42;66.81;101569.53;5136611;27;46019;-79
2021/12/22 02:57:44;;;;;;;;;40.25;31.25;;;;;2.53;67.01;101583.06;5136949;27;45747;-80
2021/12/22 03:03:15;;;;;;;;;38.50;31.00;;;;;2.52;66.88;101575.31;5137074;27;46085;-78
2021/12/22 03:05:34;;;;;;;;;44.25;31.50;;;;;2.58;66.83;101589.84;5141029;27;45619;-79
2021/12/22 03:08:00;;;;;;;;;36.75;32.00;;;;;2.57;67.09;101583.84;5142129;27;45733;-80
2021/12/22 03:10:25;;;;;;;;;42.25;33.75;;;;;2.61;67.08;101589.78;5141827;27;45972;-78
2021/12/22 03:12:53;;;;;;;;;36.50;32.50;;;;;2.62;66.89;101584.56;5139525;27;45939;-79
2021/12/22 03:15:20;;;;;;;;;34.50;31.50;;;;;2.64;66.83;101582.81;5136987;27;45911;-79
2021/12/22 03:17:46;;;;;;;;;27.75;26.00;;;;;2.50;67.19;101549.50;5136907;27;45539;-80
2021/12/22 03:20:14;;;;;;;;;35.00;28.25;;;;;2.68;67.08;101581.00;5118595;27;46399;-79
2021/12/22 03:22:46;;;;;;;;;35.50;28.25;;;;;2.66;66.98;101575.00;5138667;27;45670;-79
2021/12/22 03:25:17;;;;;;;;;47.25;35.25;;;;;2.60;66.73;101573.41;5139182;27;45811;-79
2021/12/22 03:27:46;;;;;;;;;49.00;36.00;;;;;2.68;66.78;101586.19;5141417;27;45760;-79
2021/12/22 03:30:14;;;;;;;;;42.00;35.50;;;;;2.67;67.02;101592.22;5125631;27;47661;-79
2021/12/22 03:32:40;;;;;;;;;33.75;28.00;;;;;2.61;67.30;101580.28;5145432;27;46355;-79
2021/12/22 03:35:06;;;;;;;;;48.25;35.50;;;;;2.58;67.20;101576.94;5147716;27;45547;-80
2021/12/22 03:37:31;;;;;;;;;48.75;34.25;;;;;2.64;66.87;101588.00;5161741;27;45197;-80
2021/12/22 03:39:57;;;;;;;;;43.75;35.00;;;;;2.58;67.06;101564.00;5161139;27;45610;-80
2021/12/22 03:42:22;;;;;;;;;39.00;31.25;;;;;2.59;66.92;101565.69;5163026;27;45390;-80
2021/12/22 03:44:48;;;;;;;;;40.75;35.00;;;;;2.63;67.09;101577.66;5162997;27;44904;-79
2021/12/22 03:47:13;;;;;;;;;42.25;31.50;;;;;2.59;67.23;101570.88;5150649;27;45517;-79
2021/12/22 03:49:39;;;;;;;;;37.00;31.00;;;;;2.43;67.26;101547.91;5148100;27;45640;-80
2021/12/22 03:52:05;;;;;;;;;32.25;30.00;;;;;2.56;66.88;101564.03;5138778;27;45717;-79
2021/12/22 03:54:31;;;;;;;;;37.50;26.75;;;;;2.62;67.02;101582.00;5137878;27;45575;-79
2021/12/22 03:56:56;;;;;;;;;37.25;26.00;;;;;2.61;67.32;101588.03;5139281;27;45920;-79
2021/12/22 03:59:23;;;;;;;;;38.50;33.50;;;;;2.58;67.26;101582.94;5140766;27;46346;-80
2021/12/22 04:01:51;;;;;;;;;42.00;32.00;;;;;2.44;67.41;101570.31;5139796;27;46104;-78
2021/12/22 04:04:18;;;;;;;;;35.50;31.75;;;;;2.44;67.22;101562.56;5139836;27;45901;-79
2021/12/22 04:06:48;;;;;;;;;42.25;29.00;;;;;2.56;67.14;101578.69;5139353;27;45516;-79
2021/12/22 04:09:15;;;;;;;;;36.25;27.50;;;;;2.56;67.39;101581.28;5139160;27;45932;-79
2021/12/22 04:11:41;;;;;;;;;44.00;33.00;;;;;2.56;67.11;101573.50;5138295;27;45977;-79
2021/12/22 04:14:07;;;;;;;;;33.25;26.50;;;;;2.41;67.32;101534.19;5139496;27;45920;-77
2021/12/22 04:19:54;;;;;;;;;35.25;26.25;;;;;2.48;67.39;101538.31;5138579;27;46051;-79
2021/12/22 04:22:19;;;;;;;;;42.00;30.25;;;;;2.54;66.87;101550.25;5138542;27;45875;-79
2021/12/22 04:24:45;;;;;;;;;38.25;31.00;;;;;2.57;67.22;101559.69;5139068;27;45619;-80
2021/12/22 04:27:10;;;;;;;;;41.75;32.00;;;;;2.46;67.28;101547.00;5138523;27;45568;-78
2021/12/22 04:29:35;;;;;;;;;42.50;33.00;;;;;2.50;67.18;101549.50;5138602;27;46553;-77
2021/12/22 04:32:01;;;;;;;;;42.00;28.25;;;;;2.54;67.39;101558.03;5140334;27;46554;-79
2021/12/22 04:34:26;;;;;;;;;36.75;31.75;;;;;2.60;67.18;101572.56;5142204;27;45705;-81
2021/12/22 04:36:51;;;;;;;;;40.75;28.50;;;;;2.59;67.14;101563.97;5140395;27;45909;-79
2021/12/22 04:39:17;;;;;;;;;40.00;29.25;;;;;2.60;67.15;101564.78;5141023;27;46528;-79
2021/12/22 04:41:42;;;;;;;;;42.25;31.00;;;;;2.60;66.97;101564.78;5139552;27;45499;-79
2021/12/22 04:44:08;;;;;;;;;40.25;31.00;;;;;2.53;67.32;101546.84;5139958;27;45675;-80
2021/12/22 04:50:14;;;;;;;;;39.25;29.25;;;;;2.62;67.09;101576.81;5136297;27;45671;-79
2021/12/22 04:52:51;;;;;;;;;34.25;27.50;;;;;2.61;67.17;101576.84;5138324;27;46107;-80
2021/12/22 04:55:17;;;;;;;;;35.75;29.25;;;;;2.66;67.23;101577.59;5119382;27;45855;-78
2021/12/22 04:57:43;;;;;;;;;42.00;31.00;;;;;2.60;66.98;101575.13;5138203;27;45720;-79
2021/12/22 05:00:12;;;;;;;;;39.25;30.75;;;;;2.59;67.25;101569.16;5137839;27;46601;-79
2021/12/22 05:02:37;;;;;;;;;39.25;32.75;;;;;2.59;67.30;101571.72;5138209;27;46107;-80
2021/12/22 05:05:04;;;;;;;;;40.00;31.50;;;;;2.65;67.44;101583.63;5138187;27;45617;-80
2021/12/22 05:07:29;;;;;;;;;30.75;23.25;;;;;2.63;66.93;101570.75;5138008;27;45759;-80
2021/12/22 05:09:55;;;;;;;;;38.00;31.25;;;;;2.63;67.40;101575.94;5137985;27;46091;-79
2021/12/22 05:12:20;;;;;;;;;36.00;28.25;;;;;2.50;66.96;101533.13;5138325;27;45693;-80
2021/12/22 05:14:49;;;;;;;;;34.00;27.75;;;;;2.53;67.19;101541.69;5138784;27;45641;-80
2021/12/22 05:17:22;;;;;;;;;33.25;26.50;;;;;2.56;66.97;101527.81;5138578;27;45777;-80
2021/12/22 05:19:48;;;;;;;;;37.25;26.25;;;;;2.63;67.10;101544.91;5138980;27;45560;-79
2021/12/22 05:22:14;;;;;;;;;31.75;26.25;;;;;2.51;67.43;101537.41;5137992;27;45678;-79
2021/12/22 05:24:40;;;;;;;;;27.50;24.50;;;;;2.50;67.12;101538.28;5138177;27;45588;-80
2021/12/22 05:27:11;;;;;;;;;39.25;31.00;;;;;2.60;66.88;101550.13;5138409;27;45655;-79
2021/12/22 05:29:38;;;;;;;;;35.50;28.25;;;;;2.59;66.97;101548.44;5137947;27;46503;-79
2021/12/22 05:35:25;;;;;;;;;42.75;37.00;;;;;2.50;67.14;101533.97;5138270;27;45917;-77
2021/12/22 05:37:50;;;;;;;;;43.25;34.25;;;;;2.48;66.89;101538.31;5138870;27;45615;-80
2021/12/22 05:40:16;;;;;;;;;39.25;31.00;;;;;2.53;67.22;101556.34;5119838;27;46560;-80
2021/12/22 05:42:42;;;;;;;;;27.25;24.75;;;;;2.52;67.15;101559.81;5138103;27;46179;-81
2021/12/22 05:45:08;;;;;;;;;39.00;29.25;;;;;2.50;67.39;101549.50;5138507;27;45735;-80
2021/12/22 05:47:34;;;;;;;;;40.75;29.25;;;;;2.50;66.94;101554.66;5138332;27;45924;-78
2021/12/22 05:50:00;;;;;;;;;29.25;18.75;;;;;2.35;67.09;101534.34;5137515;27;45868;-80
2021/12/22 05:52:30;;;;;;;;;32.50;27.75;;;;;2.45;67.11;101550.47;5137770;27;46125;-80
2021/12/22 05:54:56;;;;;;;;;31.25;28.25;;;;;2.44;66.83;101562.56;5137516;27;45727;-80
2021/12/22 05:57:21;;;;;;;;;36.75;30.25;;;;;2.39;66.73;101550.63;5138831;27;45759;-79
2021/12/22 05:59:47;;;;;;;;;36.75;30.00;;;;;2.44;66.84;101562.56;5140481;27;46501;-80
2021/12/22 06:05:34;;;;;;;;;35.50;27.25;;;;;2.39;66.96;101576.47;5140124;27;45572;-78
2021/12/22 06:07:59;;;;;;;;;42.50;32.75;;;;;2.38;67.24;101582.53;5137452;27;45666;-79
2021/12/22 06:10:25;;;;;;;;;34.25;25.00;;;;;2.41;66.91;101585.91;5137172;27;45591;-79
2021/12/22 06:12:59;;;;;;;;;36.25;28.25;;;;;2.40;66.98;101563.50;5136672;27;46018;-79
2021/12/22 06:15:25;;;;;;;;;30.50;27.00;;;;;2.40;67.28;101560.06;5137697;27;45713;-80
2021/12/22 06:17:56;;;;;;;;;33.50;27.00;;;;;2.15;67.03;101521.00;5137559;27;45729;-79
2021/12/22 06:20:24;;;;;;;;;31.50;28.00;;;;;2.03;67.06;101505.75;5136005;27;46643;-79
2021/12/22 06:22:50;;;;;;;;;34.75;29.00;;;;;2.29;67.56;101559.47;5117854;27;46933;-79
2021/12/22 06:25:16;;;;;;;;;36.75;24.50;;;;;2.30;66.92;101556.00;5137176;27;45893;-78
2021/12/22 06:27:42;;;;;;;;;33.25;25.50;;;;;2.21;67.21;101546.72;5136914;27;45686;-80
2021/12/22 06:30:08;;;;;;;;;36.50;27.50;;;;;2.22;66.78;101539.78;5117657;27;46506;-79
2021/12/22 06:35:55;;;;;;;;;34.75;24.50;;;;;2.26;66.99;101562.97;5136713;27;45567;-80
2021/12/22 06:38:21;;;;;;;;;34.75;25.75;;;;;2.13;67.26;101558.94;5136934;27;45680;-78
2021/12/22 06:40:46;;;;;;;;;31.00;27.50;;;;;2.26;67.27;101565.56;5136298;27;46506;-80
2021/12/22 06:43:14;;;;;;;;;41.75;33.00;;;;;2.01;67.38;101528.19;5137559;27;45670;-80
2021/12/22 06:45:40;;;;;;;;;34.25;29.00;;;;;2.26;67.24;101562.13;5138216;27;45559;-79
2021/12/22 06:48:06;;;;;;;;;35.50;30.25;;;;;2.21;67.53;101569.13;5138284;27;45685;-78
2021/12/22 06:50:31;;;;;;;;;46.50;37.00;;;;;2.25;67.55;101579.38;5136431;27;45607;-79
2021/12/22 06:52:56;;;;;;;;;39.25;28.50;;;;;2.26;67.00;101585.38;5118122;27;46121;-80
2021/12/22 06:55:22;;;;;;;;;30.00;24.25;;;;;2.21;67.08;101575.16;5136402;27;45675;-79
2021/12/22 06:57:47;;;;;;;;;32.75;24.50;;;;;2.23;67.23;101575.94;5117901;27;45717;-80
2021/12/22 07:00:14;;;;;;;;;45.50;39.00;;;;;2.27;66.83;101587.91;5117431;27;46933;-80
2021/12/22 07:06:01;;;;;;;;;32.25;28.50;;;;;2.27;67.40;101582.75;5136088;27;45765;-80
2021/12/22 07:08:26;;;;;;;;;37.50;27.25;;;;;2.15;67.15;101567.53;5136592;27;45729;-81
2021/12/22 07:10:52;;;;;;;;;30.75;26.50;;;;;2.14;66.87;101557.22;5135890;27;45731;-78
2021/12/22 07:13:18;;;;;;;;;30.50;27.50;;;;;2.22;67.09;101574.25;5135943;27;46268;-78
2021/12/22 07:15:43;;;;;;;;;45.25;34.50;;;;;2.18;67.04;101562.28;5136363;27;45767;-78
2021/12/22 07:18:11;;;;;;;;;35.00;28.25;;;;;2.23;67.34;101570.78;5136193;27;45699;-77
2021/12/22 07:20:37;;;;;;;;;26.25;24.25;;;;;2.10;67.21;101546.94;5135733;27;47428;-78
2021/12/22 07:23:02;;;;;;;;;30.50;27.50;;;;;2.21;66.71;101566.53;5137130;27;46622;-77
2021/12/22 07:25:28;;;;;;;;;35.00;30.25;;;;;2.25;67.23;101565.59;5139471;27;45692;-78
2021/12/22 07:27:53;;;;;;;;;30.25;27.00;;;;;2.24;67.01;101562.16;5139422;27;45792;-77
2021/12/22 07:30:19;;;;;;;;;41.00;28.25;;;;;2.29;67.02;101567.22;5138116;27;46928;-76
2021/12/22 07:36:06;;;;;;;;;37.00;28.00;;;;;2.27;67.12;101569.81;5135336;27;45892;-76
2021/12/22 07:38:52;;;;;;;;;32.25;28.75;;;;;2.33;66.99;101577.44;5135739;27;45714;-74
2021/12/22 07:41:17;;;;;;;;;37.50;29.00;;;;;2.28;67.01;101563.78;5134731;27;46556;-77
2021/12/22 07:43:43;;;;;;;;;43.50;38.00;;;;;2.34;67.39;101567.97;5135490;27;46448;-77
2021/12/22 07:46:08;;;;;;;;;35.00;30.50;;;;;2.32;67.09;101562.00;5135501;27;45919;-74
2021/12/22 07:48:35;;;;;;;;;36.25;28.00;;;;;2.36;67.10;101561.88;5116899;27;45586;-77
2021/12/22 07:51:00;;;;;;;;;38.50;28.25;;;;;2.38;66.89;101565.28;5134812;27;47392;-77
2021/12/22 07:53:26;;;;;;;;;34.00;28.25;;;;;2.42;66.81;101568.66;5135082;27;46393;-76
2021/12/22 07:55:55;;;;;;;;;50.00;33.50;;;;;2.45;67.02;101568.59;5135043;27;45608;-79
2021/12/22 07:58:24;;;;;;;;;35.25;30.25;;;;;2.42;66.68;101566.94;5135817;27;45688;-74
2021/12/22 08:00:51;;;;;;;;;38.75;30.00;;;;;2.38;66.80;101564.41;5134965;27;46968;-77
2021/12/22 08:03:17;;;;;;;;;38.75;31.25;;;;;2.47;67.34;101582.34;5135173;27;46118;-76
2021/12/22 08:05:43;;;;;;;;;41.00;33.75;;;;;2.34;66.76;101568.81;5135002;27;45711;-79
2021/12/22 08:08:08;;;;;;;;;45.75;32.75;;;;;2.46;66.92;101594.41;5135072;27;45576;-78
2021/12/22 08:10:34;;;;;;;;;35.75;29.50;;;;;2.42;67.35;101587.63;5134704;27;46331;-77
2021/12/22 08:12:59;;;;;;;;;34.25;27.50;;;;;2.42;67.11;101582.44;5135319;27;46112;-76
2021/12/22 08:15:25;;;;;;;;;44.25;34.00;;;;;2.45;67.03;101587.53;5135139;27;45718;-77
2021/12/22 08:21:12;;;;;;;;;36.50;31.25;;;;;2.47;66.96;101570.25;5134479;27;45954;-76
2021/12/22 08:23:37;;;;;;;;;35.00;28.25;;;;;2.49;67.16;101567.63;5134555;27;47185;-77
2021/12/22 08:26:03;;;;;;;;;39.50;32.75;;;;;2.46;67.02;101552.19;5134759;27;45606;-77
2021/12/22 08:28:28;;;;;;;;;40.75;31.25;;;;;2.48;66.96;101553.00;5135224;27;45847;-76
2021/12/22 08:30:53;;;;;;;;;28.50;22.00;;;;;2.54;66.83;101558.03;5134335;27;45664;-77
2021/12/22 08:39:26;;;;;;;;;37.50;30.25;;;;;2.55;66.84;101564.91;5134801;27;45548;-77
2021/12/22 08:41:53;;;;;;;;;32.50;28.75;;;;;2.56;66.59;101566.59;5115812;27;46357;-75
2021/12/22 08:44:19;;;;;;;;;34.00;29.25;;;;;2.53;67.20;101549.44;5138246;27;46931;-77
2021/12/22 08:46:49;;;;;;;;;35.00;29.75;;;;;2.58;66.98;101551.91;5138033;27;45864;-75
2021/12/22 08:49:16;;;;;;;;;36.25;31.50;;;;;2.62;67.12;101565.63;5140145;27;45500;-76
2021/12/22 08:51:41;;;;;;;;;41.25;34.75;;;;;2.63;67.29;101556.97;5140660;27;45548;-75
2021/12/22 08:54:07;;;;;;;;;38.00;31.25;;;;;2.64;67.18;101561.28;5141224;27;45927;-78
2021/12/22 08:56:33;;;;;;;;;38.25;33.75;;;;;2.61;67.05;101545.81;5140004;27;45776;-74
2021/12/22 08:58:59;;;;;;;;;42.75;34.25;;;;;2.67;66.71;101553.44;5137317;27;45964;-78
2021/12/22 09:01:25;;;;;;;;;40.75;32.50;;;;;2.61;66.81;101538.03;5139080;27;46531;-78
2021/12/22 09:03:51;;;;;;;;;37.00;31.00;;;;;2.70;66.63;101550.78;5137814;27;46138;-77
2021/12/22 09:06:17;;;;;;;;;33.25;23.75;;;;;2.63;66.74;101534.56;5137887;27;45600;-77
2021/12/22 09:08:43;;;;;;;;;33.00;30.00;;;;;2.70;66.86;101549.03;5119400;27;45565;-79
2021/12/22 09:11:09;;;;;;;;;37.50;29.00;;;;;2.69;66.80;101549.06;5137459;27;46557;-76
2021/12/22 09:13:36;;;;;;;;;42.00;34.50;;;;;2.68;66.52;101549.97;5137283;27;46088;-78
2021/12/22 09:16:03;;;;;;;;;47.00;35.75;;;;;2.67;66.95;101551.69;5137607;27;45879;-74
2021/12/22 09:21:51;;;;;;;;;37.00;33.25;;;;;2.60;67.08;101539.78;5137234;27;45606;-79
2021/12/22 09:24:17;;;;;;;;;46.00;31.50;;;;;2.69;66.54;101544.75;5137853;27;46059;-78
2021/12/22 09:26:43;;;;;;;;;40.25;31.50;;;;;2.70;67.08;101554.19;5119220;27;45769;-78
2021/12/22 09:29:09;;;;;;;;;47.00;37.00;;;;;2.73;67.03;101551.56;5119061;27;45660;-78
2021/12/22 09:31:35;;;;;;;;;50.00;35.00;;;;;2.73;66.75;101541.19;5136835;27;46447;-77
2021/12/22 09:34:02;;;;;;;;;41.25;34.25;;;;;2.75;67.06;101542.03;5137264;27;47272;-77
2021/12/22 09:36:28;;;;;;;;;48.00;37.50;;;;;2.75;66.74;101544.63;5137078;27;45923;-77
2021/12/22 09:38:53;;;;;;;;;39.25;34.25;;;;;2.78;66.74;101548.84;5137821;27;45547;-78
2021/12/22 09:41:19;;;;;;;;;38.75;33.50;;;;;2.76;66.72;101548.88;5136798;27;46680;-75
2021/12/22 09:43:44;;;;;;;;;39.00;32.00;;;;;2.80;66.74;101552.25;5137322;27;45648;-77
2021/12/22 09:53:17;;;;;;;;;42.75;37.50;;;;;2.85;66.75;101560.75;5107970;27;45983;-75
2021/12/22 09:55:43;;;;;;;;;37.50;32.75;;;;;2.86;67.14;101573.63;5115578;27;46193;-75
2021/12/22 09:58:11;;;;;;;;;45.25;33.75;;;;;2.79;66.85;101554.00;5116351;27;45747;-78
2021/12/22 10:00:39;;;;;;;;;43.50;38.25;;;;;2.82;66.70;101560.81;5116530;27;45573;-77
2021/12/22 10:06:27;;;;;;;;;45.50;32.25;;;;;2.93;66.66;101567.44;5116377;27;45780;-78
2021/12/22 10:08:57;;;;;;;;;36.75;33.00;;;;;2.94;66.82;101556.22;5115566;27;45908;-79
2021/12/22 10:11:23;;;;;;;;;51.25;39.75;;;;;2.93;66.74;101548.47;5116545;27;45621;-79
2021/12/22 10:13:49;;;;;;;;;43.00;33.50;;;;;2.95;66.80;101546.72;5119103;27;46183;-76
2021/12/22 10:22:44;;;;;;;;;47.50;28.75;;;;;3.08;66.81;101561.03;5119850;27;45589;-75
2021/12/22 10:25:23;;;;;;;;;54.00;37.50;;;;;3.10;66.58;101554.09;5119420;27;45846;-78
2021/12/22 10:28:21;;;;;;;;;49.50;38.25;;;;;3.11;66.54;101547.19;5116958;27;47256;-78
2021/12/22 10:30:48;;;;;;;;;44.25;38.75;;;;;3.14;66.68;101560.88;5011741;28;45695;-77
2021/12/22 10:33:19;;;;;;;;;40.25;31.75;;;;;3.08;66.33;101539.50;5003924;28;45580;-77
2021/12/22 10:35:58;;;;;;;;;38.50;31.75;;;;;3.18;66.48;101553.91;5011885;28;47559;-77
2021/12/22 10:38:27;;;;;;;;;56.00;42.00;;;;;3.20;66.31;101549.53;5012005;28;46412;-79
2021/12/22 10:40:58;;;;;;;;;47.50;38.50;;;;;3.25;66.75;101542.47;5011439;28;45767;-76
2021/12/22 10:43:29;;;;;;;;;46.75;38.50;;;;;3.27;66.50;101544.16;5012208;28;45780;-79
2021/12/22 10:45:59;;;;;;;;;48.75;39.00;;;;;3.36;66.70;101545.66;5011844;28;46600;-77
2021/12/22 10:51:13;;;;;;;;;45.75;35.75;;;;;3.46;66.67;101522.94;5015647;28;46151;-77
2021/12/22 10:53:44;;;;;;;;;43.50;36.00;;;;;3.49;66.65;101502.16;5031946;28;45750;-78
2021/12/22 10:56:25;;;;;;;;;46.75;36.25;;;;;3.55;66.46;101501.97;5031318;28;46468;-77
2021/12/22 10:59:17;;;;;;;;;43.00;35.75;;;;;3.59;66.30;101496.66;5031800;28;46596;-79
2021/12/22 11:05:17;;;;;;;;;47.00;36.75;;;;;3.64;66.36;101492.22;5031247;28;45747;-78
2021/12/22 11:07:42;;;;;;;;;47.00;34.50;;;;;3.66;66.45;101497.34;5114206;27;47224;-79
2021/12/22 11:10:25;;;;;;;;;42.00;34.50;;;;;3.66;66.44;101498.19;5114942;27;46194;-77
2021/12/22 11:13:03;;;;;;;;;50.00;32.25;;;;;3.67;66.19;101501.66;5115249;27;45966;-78
2021/12/22 11:15:29;;;;;;;;;32.25;27.50;;;;;3.67;66.27;101492.09;5115329;27;45684;-77
2021/12/22 11:21:29;;;;;;;;;53.25;40.50;;;;;3.69;66.32;101487.75;5114256;27;45837;-76
2021/12/22 11:23:55;;;;;;;;;42.75;37.25;;;;;3.61;66.37;101468.13;5115195;27;45630;-79
2021/12/22 11:26:20;;;;;;;;;42.00;34.25;;;;;3.69;66.06;101479.13;5096235;27;46016;-77
2021/12/22 11:28:46;;;;;;;;;48.00;39.50;;;;;3.68;66.02;101467.91;5114755;27;47438;-78
2021/12/22 11:31:11;;;;;;;;;52.25;40.25;;;;;3.63;66.13;101462.00;5114010;27;46496;-75
2021/12/22 11:36:59;;;;;;;;;43.25;35.50;;;;;3.68;65.84;101462.72;5115051;27;45711;-76
2021/12/22 11:39:25;;;;;;;;;41.00;34.75;;;;;3.65;65.78;101449.88;5116676;27;46404;-75
2021/12/22 11:41:58;;;;;;;;;50.00;35.00;;;;;3.63;65.78;101453.38;5116048;27;45778;-74
2021/12/22 11:44:26;;;;;;;;;43.25;33.75;;;;;3.67;65.82;101449.84;5116058;27;45992;-76
2021/12/22 11:46:55;;;;;;;;;41.50;32.25;;;;;3.69;65.82;101451.47;5114757;27;46014;-77
2021/12/22 11:49:21;;;;;;;;;42.75;33.25;;;;;3.68;65.72;101448.91;5114168;27;46627;-78
2021/12/22 11:51:46;;;;;;;;;44.25;32.75;;;;;3.70;65.61;101442.81;5104925;27;46052;-78
2021/12/22 11:54:12;;;;;;;;;41.50;31.50;;;;;3.71;65.62;101441.91;5135073;27;45784;-73
2021/12/22 11:56:43;;;;;;;;;45.00;35.00;;;;;3.70;65.57;101434.19;5135765;27;45774;-76
2021/12/22 11:59:24;;;;;;;;;37.50;32.25;;;;;3.66;65.51;101430.84;5135126;27;46470;-76
2021/12/22 12:02:18;;;;;;;;;42.50;34.00;;;;;3.61;65.47;101432.72;5134893;27;46133;-75
2021/12/22 12:04:44;;;;;;;;;39.25;33.75;;;;;3.55;65.48;101419.09;5135200;27;45820;-77
2021/12/22 12:07:10;;;;;;;;;43.25;32.75;;;;;3.54;65.45;101415.66;5135498;27;45660;-76
2021/12/22 12:09:45;;;;;;;;;45.75;35.75;;;;;3.52;65.43;101401.88;5115696;27;46824;-77
2021/12/22 12:12:47;;;;;;;;;46.25;37.50;;;;;3.52;65.25;101385.50;5134536;27;46465;-75
2021/12/22 12:15:24;;;;;;;;;41.50;33.50;;;;;3.54;65.33;101388.91;5134630;27;45495;-78
2021/12/22 12:23:31;;;;;;;;;56.50;39.25;;;;;3.52;65.35;101386.34;5138562;27;46019;-79
2021/12/22 12:26:03;;;;;;;;;36.25;30.00;;;;;3.53;65.37;101382.88;5138241;27;45810;-76
2021/12/22 12:28:30;;;;;;;;;36.50;32.50;;;;;3.57;65.52;101375.84;5138401;27;45591;-76
2021/12/22 12:31:00;;;;;;;;;45.00;33.25;;;;;3.58;65.24;101380.13;5138227;27;47183;-76
2021/12/22 12:33:34;;;;;;;;;49.50;35.25;;;;;3.60;65.10;101374.03;5139006;27;45959;-76
2021/12/22 12:36:05;;;;;;;;;41.50;33.50;;;;;3.57;65.37;101366.31;5138588;27;45576;-78
2021/12/22 12:38:40;;;;;;;;;38.00;34.00;;;;;3.64;65.28;101373.03;5119887;27;45917;-76
2021/12/22 12:41:28;;;;;;;;;44.25;35.25;;;;;3.66;65.13;101366.06;5138106;27;45630;-74
2021/12/22 12:44:00;;;;;;;;;38.00;28.75;;;;;3.66;65.23;101360.88;5138310;27;46194;-74
2021/12/22 12:46:35;;;;;;;;;44.00;33.50;;;;;3.66;65.07;101373.00;5138349;27;45725;-75
2021/12/22 12:49:03;;;;;;;;;44.00;33.75;;;;;3.64;64.99;101375.63;5138381;27;45626;-77
2021/12/22 12:51:42;;;;;;;;;47.25;40.25;;;;;3.56;65.32;101369.00;5137607;27;47094;-78
2021/12/22 12:54:16;;;;;;;;;41.25;31.75;;;;;3.62;65.01;101392.94;5138110;27;46172;-74